createdAt,value
2018-11-12T00:01:44.979Z,80.39
2018-11-12T00:05:52.233Z,80.39
2018-11-12T00:09:59.475Z,80.45
2018-11-12T00:14:08.154Z,81.00
2018-11-12T00:18:18.324Z,81.18
2018-11-12T00:22:25.586Z,81.23
2018-11-12T00:26:32.754Z,81.69
2018-11-12T00:30:40.004Z,81.90
2018-11-12T00:34:47.293Z,81.56
2018-11-12T00:38:54.553Z,81.55
2018-11-12T00:43:01.687Z,81.83
2018-11-12T00:47:09.050Z,81.78
2018-11-12T00:51:16.243Z,81.64
2018-11-12T00:55:23.321Z,81.83
2018-11-12T00:59:30.447Z,82.71
2018-11-12T01:03:37.849Z,83.11
2018-11-12T01:07:44.932Z,83.65
2018-11-12T01:11:53.248Z,84.06
2018-11-12T01:16:00.335Z,84.31
2018-11-12T01:20:08.359Z,84.76
2018-11-12T01:24:15.658Z,84.69
2018-11-12T01:28:22.734Z,84.37
2018-11-12T01:32:30.019Z,84.08
2018-11-12T01:36:37.163Z,83.98
2018-11-12T01:40:44.470Z,84.54
2018-11-12T01:44:51.642Z,84.64
2018-11-12T01:48:58.776Z,84.94
2018-11-12T01:53:06.411Z,84.97
2018-11-12T01:57:13.530Z,84.98
2018-11-12T02:01:20.686Z,85.20
2018-11-12T02:05:27.853Z,85.19
2018-11-12T02:09:37.548Z,85.20
2018-11-12T02:13:44.745Z,84.98
2018-11-12T02:17:51.909Z,84.81
2018-11-12T02:21:59.072Z,84.95
2018-11-12T02:26:06.499Z,84.87
2018-11-12T02:30:36.696Z,84.64
2018-11-12T02:34:43.911Z,83.97
2018-11-12T02:38:51.131Z,84.04
2018-11-12T02:42:58.484Z,83.94
2018-11-12T02:47:05.675Z,84.22
2018-11-12T02:51:12.828Z,84.46
2018-11-12T02:55:20.034Z,83.89
2018-11-12T02:59:27.227Z,83.76
2018-11-12T03:03:34.468Z,83.50
2018-11-12T03:07:42.058Z,82.60
2018-11-12T03:11:49.208Z,81.89
2018-11-12T03:15:56.542Z,82.08
2018-11-12T03:20:04.163Z,82.54
2018-11-12T03:24:11.252Z,81.86
2018-11-12T03:28:18.471Z,80.88
2018-11-12T03:32:25.727Z,80.63
2018-11-12T03:36:32.901Z,81.48
2018-11-12T03:40:40.046Z,81.67
2018-11-12T03:44:47.190Z,81.29
2018-11-12T03:48:54.354Z,81.29
2018-11-12T03:53:01.502Z,80.95
2018-11-12T03:57:08.933Z,81.26
2018-11-12T04:01:16.138Z,81.26
2018-11-12T04:05:23.244Z,80.42
2018-11-12T04:09:30.261Z,80.29
2018-11-12T04:13:40.065Z,80.36
2018-11-12T04:17:47.421Z,80.48
2018-11-12T04:21:54.754Z,80.35
2018-11-12T04:26:01.951Z,80.79
2018-11-12T04:30:14.781Z,80.64
2018-11-12T04:34:22.067Z,80.48
2018-11-12T04:38:29.283Z,80.50
2018-11-12T04:42:36.486Z,80.65
2018-11-12T04:46:43.634Z,80.15
2018-11-12T04:50:50.773Z,80.70
2018-11-12T04:54:57.959Z,80.49
2018-11-12T04:59:05.140Z,80.16
2018-11-12T05:03:12.541Z,80.28
2018-11-12T05:07:19.884Z,79.87
2018-11-12T05:11:27.005Z,80.41
2018-11-12T05:15:34.224Z,79.77
2018-11-12T05:19:41.368Z,79.77
2018-11-12T05:23:48.656Z,79.96
2018-11-12T05:27:55.915Z,79.96
2018-11-12T05:32:03.380Z,79.72
2018-11-12T05:36:10.762Z,80.57
2018-11-12T05:40:19.281Z,80.35
2018-11-12T05:44:26.519Z,80.21
2018-11-12T05:48:34.062Z,80.08
2018-11-12T05:52:41.848Z,80.29
2018-11-12T05:56:49.363Z,81.05
2018-11-12T06:00:56.548Z,80.47
2018-11-12T06:05:03.899Z,80.91
2018-11-12T06:09:12.813Z,79.92
2018-11-12T06:13:22.965Z,80.43
2018-11-12T06:17:30.067Z,80.30
2018-11-12T06:21:37.189Z,79.79
2018-11-12T06:25:44.416Z,79.79
2018-11-12T06:29:51.603Z,79.50
2018-11-12T06:34:01.572Z,79.50
2018-11-12T06:38:10.990Z,78.34
2018-11-12T06:42:18.259Z,78.82
2018-11-12T06:46:25.512Z,78.37
2018-11-12T06:50:33.950Z,78.95
2018-11-12T06:54:41.125Z,79.39
2018-11-12T06:58:48.421Z,79.12
2018-11-12T07:02:55.831Z,78.05
2018-11-12T07:07:03.455Z,78.41
2018-11-12T07:11:11.033Z,78.41
2018-11-12T07:15:26.006Z,78.30
2018-11-12T07:19:41.954Z,79.49
2018-11-12T07:23:49.456Z,78.85
2018-11-12T07:27:57.431Z,78.94
2018-11-12T07:32:05.452Z,78.45
2018-11-12T07:36:12.692Z,78.54
2018-11-12T07:40:20.573Z,78.25
2018-11-12T07:44:28.000Z,78.38
2018-11-12T07:48:35.432Z,78.24
2018-11-12T07:52:42.833Z,78.15
2018-11-12T07:56:50.293Z,78.72
2018-11-12T08:00:59.069Z,79.32
2018-11-12T08:05:06.768Z,78.60
2018-11-12T08:09:14.053Z,78.60
2018-11-12T08:14:26.940Z,79.08
2018-11-12T08:18:54.945Z,78.54
2018-11-12T08:23:02.629Z,78.43
2018-11-12T08:27:11.495Z,77.73
2018-11-12T08:31:18.657Z,77.81
2018-11-12T08:35:26.028Z,77.68
2018-11-12T08:39:33.393Z,78.21
2018-11-12T08:43:40.480Z,78.15
2018-11-12T08:47:49.285Z,77.96
2018-11-12T08:51:56.598Z,78.27
2018-11-12T08:56:03.925Z,78.51
2018-11-12T09:00:12.551Z,78.55
2018-11-12T09:04:20.825Z,78.26
2018-11-12T09:08:28.231Z,77.78
2018-11-12T09:12:35.529Z,77.67
2018-11-12T09:16:42.830Z,77.39
2018-11-12T09:20:49.980Z,77.27
2018-11-12T09:25:00.005Z,76.27
2018-11-12T09:29:07.290Z,76.58
2018-11-12T09:33:14.735Z,76.85
2018-11-12T09:37:22.399Z,76.27
2018-11-12T09:41:29.583Z,76.27
2018-11-12T09:45:37.021Z,76.34
2018-11-12T09:49:44.220Z,76.34
2018-11-12T09:53:51.447Z,76.34
2018-11-12T09:58:00.151Z,75.68
2018-11-12T10:02:08.263Z,75.93
2018-11-12T10:06:16.201Z,75.47
2018-11-12T10:10:40.320Z,75.40
2018-11-12T10:14:48.130Z,74.98
2018-11-12T10:18:52.385Z,74.97
2018-11-12T10:22:59.623Z,74.81
2018-11-12T10:27:07.234Z,74.62
2018-11-12T10:31:14.398Z,74.51
2018-11-12T10:35:21.688Z,74.76
2018-11-12T10:39:28.933Z,74.51
2018-11-12T10:43:38.741Z,74.41
2018-11-12T10:47:48.841Z,73.81
2018-11-12T10:51:57.130Z,74.01
2018-11-12T10:56:04.422Z,73.64
2018-11-12T11:00:43.660Z,74.21
2018-11-12T11:04:50.956Z,73.65
2018-11-12T11:08:58.129Z,73.62
2018-11-12T11:13:05.945Z,73.40
2018-11-12T11:17:13.288Z,73.61
2018-11-12T11:21:20.555Z,73.95
2018-11-12T11:25:27.814Z,73.49
2018-11-12T11:29:35.138Z,73.43
2018-11-12T11:33:42.614Z,73.46
2018-11-12T11:37:52.744Z,73.49
2018-11-12T11:42:00.039Z,73.53
2018-11-12T11:46:07.379Z,73.30
2018-11-12T11:50:16.724Z,72.60
2018-11-12T11:54:23.928Z,72.47
2018-11-12T11:58:31.224Z,71.33
2018-11-12T12:02:38.651Z,70.86
2018-11-12T12:06:46.111Z,70.42
2018-11-12T12:10:53.454Z,70.84
2018-11-12T12:15:00.881Z,70.19
2018-11-12T12:19:08.813Z,69.80
2018-11-12T12:23:16.218Z,69.05
2018-11-12T12:27:23.389Z,68.72
2018-11-12T12:31:30.558Z,67.52
2018-11-12T12:35:37.920Z,67.14
2018-11-12T12:39:45.064Z,67.46
2018-11-12T12:43:52.423Z,67.77
2018-11-12T12:48:00.057Z,69.32
2018-11-12T12:52:07.980Z,69.33
2018-11-12T12:56:15.263Z,70.53
2018-11-12T13:00:26.656Z,70.51
2018-11-12T13:04:35.753Z,69.95
2018-11-12T13:08:43.199Z,70.93
2018-11-12T13:12:50.457Z,70.71
2018-11-12T13:16:57.621Z,70.39
2018-11-12T13:21:05.050Z,68.94
2018-11-12T13:25:12.552Z,69.04
2018-11-12T13:29:22.008Z,68.32
2018-11-12T13:33:29.279Z,66.26
2018-11-12T13:37:36.572Z,66.46
2018-11-12T13:41:46.201Z,64.13
2018-11-12T13:45:55.486Z,64.52
2018-11-12T13:50:00.878Z,63.01
2018-11-12T13:54:11.533Z,62.64
2018-11-12T13:58:18.754Z,62.64
2018-11-12T14:02:25.904Z,61.84
2018-11-12T14:06:33.116Z,60.91
2018-11-12T14:10:40.458Z,61.24
2018-11-12T14:14:47.714Z,61.05
2018-11-12T14:18:54.896Z,59.18
2018-11-12T14:23:02.236Z,60.31
2018-11-12T14:27:09.528Z,59.82
2018-11-12T14:31:18.147Z,59.92
2018-11-12T14:35:26.516Z,59.82
2018-11-12T14:39:33.759Z,60.85
2018-11-12T14:43:41.210Z,58.67
2018-11-12T14:47:48.893Z,58.78
2018-11-12T14:51:56.010Z,59.49
2018-11-12T14:56:03.226Z,58.56
2018-11-12T15:00:23.109Z,59.38
2018-11-12T15:04:30.318Z,59.30
2018-11-12T15:08:37.686Z,58.40
2018-11-12T15:12:46.314Z,58.49
2018-11-12T15:16:53.478Z,58.23
2018-11-12T15:21:01.010Z,57.62
2018-11-12T15:25:17.555Z,57.94
2018-11-12T15:29:24.721Z,57.68
2018-11-12T15:33:33.044Z,57.53
2018-11-12T15:37:40.676Z,57.97
2018-11-12T15:41:47.826Z,57.73
2018-11-12T15:45:55.111Z,57.82
2018-11-12T15:50:02.550Z,58.61
2018-11-12T15:54:10.209Z,57.72
2018-11-12T15:58:17.715Z,57.22
2018-11-12T16:02:24.851Z,57.28
2018-11-12T16:06:32.188Z,57.33
2018-11-12T16:10:41.660Z,57.58
2018-11-12T16:14:48.935Z,57.42
2018-11-12T16:18:56.221Z,57.32
2018-11-12T16:23:03.364Z,57.66
2018-11-12T16:27:10.554Z,57.54
2018-11-12T16:31:17.698Z,58.98
2018-11-12T16:35:26.008Z,58.48
2018-11-12T16:39:33.214Z,58.34
2018-11-12T16:43:40.601Z,58.39
2018-11-12T16:47:49.619Z,58.44
2018-11-12T16:51:57.116Z,58.66
2018-11-12T16:56:04.436Z,58.37
2018-11-12T17:00:19.337Z,64.77
2018-11-12T17:04:26.761Z,74.37
2018-11-12T17:08:34.121Z,74.37
2018-11-12T17:12:42.628Z,75.94
2018-11-12T17:16:50.056Z,76.03
2018-11-12T17:20:57.326Z,77.04
2018-11-12T17:25:04.950Z,78.59
2018-11-12T17:29:12.304Z,79.23
2018-11-12T17:33:19.562Z,81.20
2018-11-12T17:37:28.889Z,81.71
2018-11-12T17:41:36.607Z,82.88
2018-11-12T17:45:44.007Z,84.18
2018-11-12T17:49:53.381Z,84.78
2018-11-12T17:54:00.575Z,85.60
2018-11-12T17:58:08.053Z,85.54
2018-11-12T18:02:16.003Z,86.28
2018-11-12T18:06:23.823Z,86.65
2018-11-12T18:10:32.165Z,86.67
2018-11-12T18:14:39.514Z,86.77
2018-11-12T18:18:46.987Z,86.94
2018-11-12T18:22:54.903Z,87.00
2018-11-12T18:27:02.180Z,87.33
2018-11-12T18:31:10.262Z,87.26
2018-11-12T18:35:19.668Z,87.82
2018-11-12T18:39:26.998Z,87.86
2018-11-12T18:43:34.648Z,87.72
2018-11-12T18:47:42.205Z,87.48
2018-11-12T18:51:49.563Z,87.33
2018-11-12T18:55:56.748Z,87.24
2018-11-12T19:00:04.578Z,87.41
2018-11-12T19:04:11.996Z,87.29
2018-11-12T19:08:19.821Z,87.66
2018-11-12T19:12:27.190Z,87.66
2018-11-12T19:16:34.599Z,88.09
2018-11-12T19:20:41.841Z,88.18
2018-11-12T19:24:49.130Z,87.89
2018-11-12T19:28:56.330Z,87.53
2018-11-12T19:33:03.676Z,88.19
2018-11-12T19:37:10.720Z,87.12
2018-11-12T19:41:17.982Z,87.29
2018-11-12T19:45:25.477Z,87.17
2018-11-12T19:49:33.069Z,87.09
2018-11-12T19:53:40.432Z,86.77
2018-11-12T19:57:48.454Z,87.35
2018-11-12T20:01:58.735Z,86.66
2018-11-12T20:06:03.615Z,86.20
2018-11-12T20:10:16.703Z,85.90
2018-11-12T20:14:24.147Z,88.10
2018-11-12T20:18:31.567Z,88.10
2018-11-12T20:22:38.701Z,88.87
2018-11-12T20:26:46.039Z,88.38
2018-11-12T20:30:53.440Z,87.83
2018-11-12T20:35:02.749Z,87.67
2018-11-12T20:39:11.588Z,87.31
2018-11-12T20:43:18.932Z,86.51
2018-11-12T20:47:26.203Z,86.63
2018-11-12T20:51:33.557Z,86.36
2018-11-12T20:55:40.725Z,86.37
2018-11-12T20:59:48.160Z,85.94
2018-11-12T21:03:55.413Z,85.69
2018-11-12T21:08:02.744Z,85.82
2018-11-12T21:12:09.884Z,85.71
2018-11-12T21:16:17.119Z,85.18
2018-11-12T21:20:25.516Z,85.43
2018-11-12T21:24:33.364Z,85.30
2018-11-12T21:28:40.509Z,85.35
2018-11-12T21:32:48.030Z,85.41
2018-11-12T21:36:55.364Z,85.26
2018-11-12T21:41:02.773Z,85.02
2018-11-12T21:45:12.068Z,85.02
2018-11-12T21:49:19.372Z,84.92
2018-11-12T21:53:26.612Z,85.06
2018-11-12T21:57:34.053Z,84.69
2018-11-12T22:01:41.473Z,84.68
2018-11-12T22:05:48.905Z,84.40
2018-11-12T22:09:56.848Z,84.99
2018-11-12T22:14:06.143Z,85.62
2018-11-12T22:18:13.638Z,85.86
2018-11-12T22:22:21.096Z,85.88
2018-11-12T22:26:28.289Z,86.32
2018-11-12T22:30:35.641Z,86.88
2018-11-12T22:34:43.123Z,86.88
2018-11-12T22:38:50.345Z,88.58
2018-11-12T22:42:57.990Z,89.35
2018-11-12T22:47:05.244Z,89.87
2018-11-12T22:51:15.053Z,90.06
2018-11-12T22:55:22.468Z,90.06
2018-11-12T22:59:30.116Z,90.04
2018-11-12T23:03:37.396Z,90.46
2018-11-12T23:07:45.175Z,91.11
2018-11-12T23:11:53.057Z,91.78
2018-11-12T23:16:03.174Z,91.81
2018-11-12T23:20:31.080Z,92.37
2018-11-12T23:24:38.561Z,92.86
2018-11-12T23:28:46.064Z,93.15
2018-11-12T23:32:53.488Z,93.07
2018-11-12T23:37:00.900Z,94.21
2018-11-12T23:41:08.684Z,94.21
2018-11-12T23:45:21.642Z,94.40
2018-11-12T23:49:29.296Z,94.67
2018-11-12T23:53:36.631Z,94.27
2018-11-12T23:57:44.137Z,94.27
